Historyczne dane pomiarowe

Dodano dane terminowe – wersja testowa.

Dane z okresu 1951-2019

Wersja bazy: 1.34 [2019-03-16, lista zmian], aktualizacja planowana na 2019-04-15

Dane meteo z obszaru Polski uzyskane na podstawie danych udostępnionych przez Instytut Meteorologii i Gospodarki Wodnej – Państwowy Instytut Badawczy.

 

Wybierz Datę:    

       

TemperaturaWilgotnośćWiatrCiśnienieOpadyŚniegCzas trwania zjawisk
 Stacja t tx tn tng RH VA  wxwx mslp ppp RRR   cm mm wxwxwxwxwxwxwx
1994-08-14 14.9 19.1 11.3--- 4.3 4.0---- 0.3------------
1994-08-13 17.3 21.1 14.2--- 7.3 3.0---- 5.4------------
1994-08-12 16.4 20.2 14.9--- 8.0 3.3---- 3.7------------
1994-08-11 17.6 21.3 12.9--- 6.3 2.3---- 18.8------------
1994-08-10 19.8 25.1 16.0--- 5.7 2.7---- 0.0------------
1994-08-09 20.8 27.5 15.0--- 6.3 2.0---- 3.1------------
1994-08-08 21.4 28.7 15.9--- 5.7 1.3---- 3.7------------
1994-08-07 22.8 31.0 11.7--- 2.7 1.7---- 0.0------------
1994-08-06 21.5 30.0 12.3--- 0.0 0.3---- 0.0------------
1994-08-05 22.0 29.1 13.8--- 2.3 0.0---- 0.0------------
1994-08-04 21.4 28.6 15.4--- 6.0 2.0---- 2.7------------
1994-08-03 21.9 32.5 16.5--- 6.0 3.7---- 27.5------------
1994-08-02 24.1 33.7 12.6--- 2.0 0.0---- 0.0------------
1994-08-01 24.3 32.4 14.5--- 2.0 0.7---- 0.0------------
1994-07-31 25.1 33.9 14.2--- 3.0 0.7---- 0.0------------
1994-07-30 24.5 32.1 13.1--- 1.3 1.0---- 0.0------------
1994-07-29 23.9 33.3 11.3--- 1.3 0.0---- 0.0------------
1994-07-28 22.0 27.1 11.9--- 0.0 0.0---- 0.0------------
1994-07-27 24.2 32.4 12.3--- 2.7 0.7---- 0.0------------
1994-07-26 23.3 32.0 12.3--- 2.7 0.3---- 0.0------------
1994-07-25 23.1 31.0 12.0--- 2.7 0.0---- 0.0------------
1994-07-24 21.3 29.4 10.7--- 3.3 1.0---- 0.0------------
1994-07-23 20.8 28.6 10.6--- 2.0 1.0---- 0.0------------
1994-07-22 19.2 26.6 10.2--- 1.7 2.0---- 0.0------------
1994-07-21 19.8 26.1 8.1--- 0.0 2.3---- 0.0------------
1994-07-20 18.1 24.0 10.0--- 1.3 2.0---- 0.0------------
1994-07-19 19.9 25.1 14.0--- 2.0 1.3---- 0.0------------
1994-07-18 19.0 23.7 11.1--- 5.7 0.7---- 0.0------------
1994-07-17 22.2 29.9 12.5--- 4.7 1.3---- 26.7------------
1994-07-16 22.7 31.6 10.2--- 2.7 0.0---- 0.0------------
1994-07-15 21.5 28.8 12.6--- 2.0 2.3---- 0.0------------
1994-07-14 20.3 27.9 12.0--- 6.0 0.0---- 0.0------------
1994-07-13 20.3 29.5 9.2--- 2.0 1.3---- 1.8------------
1994-07-12 21.8 28.5 14.2--- 4.0 2.0---- 0.0------------
1994-07-11 16.0 20.4 11.3--- 7.3 2.0---- 0.0------------
1994-07-10 16.4 22.8 8.1--- 5.7 3.7---- 0.0------------
1994-07-09 16.6 21.7 10.2--- 6.7 5.0---- 3.4------------
1994-07-08 19.1 24.0 15.8--- 6.3 2.3---- 0.1------------
1994-07-07 19.4 27.1 8.6--- 5.7 1.3---- 0.4------------
1994-07-06 18.2 24.6 9.0--- 2.3 1.7---- 0.0------------
1994-07-05 19.8 27.1 8.5--- 2.3 3.0---- 0.0------------
1994-07-04 19.1 26.7 6.6--- 0.3 1.3---- 0.0------------
1994-07-03 18.5 26.2 5.4--- 2.0 1.3---- 0.0------------
1994-07-02 17.2 24.1 8.1--- 0.0 3.3---- 0.0------------
1994-07-01 19.2 24.0 14.2--- 3.7 4.7---- 0.0------------
1994-06-30 23.9 31.5 13.1--- 4.0 4.7---- 0.3------------
1994-06-29 22.9 30.0 11.3--- 0.7 1.0---- 0.0------------
1994-06-28 23.1 28.1 15.4--- 2.3 2.3---- 0.0------------
1994-06-27 24.6 31.5 12.3--- 3.7 3.7---- 0.0------------
1994-06-26 20.0 28.6 6.1--- 0.0 3.7---- 0.0------------
1994-06-25 15.7 21.5 3.7--- 0.0 3.7---- 0.0------------
1994-06-24 14.7 20.1 7.5--- 1.7 12.3---- 0.0------------
1994-06-23 17.8 21.5 15.2--- 3.7 11.7---- 0.0------------
1994-06-22 17.8 26.1 5.0--- 3.3 5.0---- 0.1------------
1994-06-21 14.2 20.4 4.5--- 2.3 3.3---- 0.0------------
1994-06-20 17.1 22.2 11.1--- 4.3 9.3---- 0.0------------
1994-06-19 15.0 21.6 10.6--- 6.3 4.0---- 0.0------------
1994-06-18 11.7 18.0 4.1--- 5.0 6.7---- 1.1------------
1994-06-17 10.7 14.6 8.1--- 5.7 6.7---- 2.5------------
1994-06-16 12.3 18.5 3.0--- 5.0 6.3---- 3.0------------
400.5 ms

 

Źródłem pochodzenia danych jest Instytut Meteorologii i Gospodarki Wodnej – Państwowy Instytut Badawczy. Dane Instytutu Meteorologii i Gospodarki Wodnej – Państwowego Instytutu Badawczego zostały przetworzone.

Dane źródłowe można odnaleźć na stronie https://dane.imgw.pl